Terminal Aerodrome Forecast
Issued by NWS

Current Version | Previous Version | Graphics & Text | Print | Product List | Glossary On
Versions: 1 2 3 4 5 6 7 8 9 10 11 12 13
000
FTUS41 KPBZ 270500
TAFMGW
TAF
KMGW 270520Z 2706/2806 18004KT P6SM BKN200
     FM271000 20005KT P6SM BKN040
     FM271600 18008KT P6SM BKN150=

USA.gov is the U.S. government's official web portal to all federal, state and local government web resources and services.